This is the latest recevied weather packets stored in our database for station/object PY1LEO-13. If no packets are shown the sender has not sent any weather packets the latest 10 day(s).
| Time | Temp. | Humidity | Pressure | Rain* | Wind** | Luminosity | Snow |
|---|---|---|---|---|---|---|---|
| 1777993565 | 29.44° C | 54% | 1020.1 hPa | - | - | - | - |
| 1777993266 | 30° C | 53% | 1020.2 hPa | - | - | - | - |
| 1777992965 | 30° C | 53% | 1020.2 hPa | - | - | - | - |
| 1777992665 | 28.89° C | 56% | 1020.3 hPa | - | - | - | - |
| 1777992365 | 29.44° C | 54% | 1020.4 hPa | - | - | - | - |
| 1777992065 | 29.44° C | 53% | 1020.4 hPa | - | - | - | - |
| 1777991765 | 29.44° C | 51% | 1020.5 hPa | - | - | - | - |
| 1777991465 | 28.89° C | 53% | 1020.6 hPa | - | - | - | - |
| 1777991166 | 29.44° C | 53% | 1020.6 hPa | - | - | - | - |
| 1777990865 | 29.44° C | 52% | 1020.7 hPa | - | - | - | - |
| 1777990565 | 28.89° C | 52% | 1020.8 hPa | - | - | - | - |
| 1777989965 | 28.89° C | 52% | 1020.8 hPa | - | - | - | - |
| 1777989665 | 28.33° C | 55% | 1020.9 hPa | - | - | - | - |
| 1777989365 | 27.78° C | 54% | 1021 hPa | - | - | - | - |
| 1777989065 | 28.89° C | 52% | 1021.1 hPa | - | - | - | - |
| 1777988765 | 28.33° C | 52% | 1021.2 hPa | - | - | - | - |
| 1777988465 | 27.22° C | 56% | 1021.3 hPa | - | - | - | - |
| 1777988165 | 26.67° C | 56% | 1021.4 hPa | - | - | - | - |
| 1777987865 | 27.22° C | 56% | 1021.4 hPa | - | - | - | - |
| 1777987565 | 27.78° C | 54% | 1021.5 hPa | - | - | - | - |
| 1777987265 | 26.67° C | 57% | 1021.5 hPa | - | - | - | - |
| 1777986965 | 26.67° C | 58% | 1021.6 hPa | - | - | - | - |
| 1777986665 | 26.67° C | 57% | 1021.7 hPa | - | - | - | - |
| 1777986365 | 27.22° C | 56% | 1021.7 hPa | - | - | - | - |
| 1777986065 | 27.22° C | 56% | 1021.7 hPa | - | - | - | - |
* Rain since midnight (hover to see other rain measurements)
** Current wind speed in m/s (hover to see current wind gust speed)